Crescent Springs, Kentucky
Current Conditions -  °F | °C
As of 2:14 PM on Saturday 25 Oct 2014 (Local Time) from KI69 Reporting Station
Scattered Clouds Scattered Clouds  
Wind Chill: 68°   Ceiling: Unl
Heat Index: 68°   Visibility: 10mi
Dew Point: 55°   Wind: 13mph
Humidity: 64%   Direction: 250°WSW
Pressure: 29.94"   Gusts: 18mph
Location:  39.0279°N, 84.5635°W
Report Text: KI69 251814Z AUTO 25011G16KT 10SM SCT022 20/13 A2994 RMK AO1
Loading
Personal Weather Stations






























Interactive Weather Map
Tropical Storm Tracking
New forecast layout! Learn more

10-Day Weather Forecast

Advertisements
Track Severe Weather on mobile